createdAt,value
2022-12-26T00:02:07.596Z,77.50
2022-12-26T00:04:48.505Z,77.50
2022-12-26T00:07:19.046Z,77.40
2022-12-26T00:09:45.538Z,77.30
2022-12-26T00:12:12.065Z,77.00
2022-12-26T00:14:38.553Z,77.10
2022-12-26T00:17:05.040Z,77.40
2022-12-26T00:19:31.515Z,77.50
2022-12-26T00:21:58.009Z,77.40
2022-12-26T00:24:24.483Z,77.20
2022-12-26T00:26:50.946Z,77.30
2022-12-26T00:29:17.412Z,77.50
2022-12-26T00:31:43.924Z,77.80
2022-12-26T00:34:10.460Z,77.40
2022-12-26T00:36:37.389Z,77.90
2022-12-26T00:39:03.895Z,78.00
2022-12-26T00:41:30.362Z,78.00
2022-12-26T00:43:56.832Z,77.80
2022-12-26T00:46:23.347Z,78.10
2022-12-26T00:48:49.865Z,77.90
2022-12-26T00:51:16.327Z,77.70
2022-12-26T00:53:42.808Z,78.20
2022-12-26T00:56:09.275Z,78.00
2022-12-26T00:58:35.765Z,77.50
2022-12-26T01:01:02.279Z,77.30
2022-12-26T01:03:28.846Z,77.50
2022-12-26T01:05:55.355Z,77.80
2022-12-26T01:08:24.879Z,78.60
2022-12-26T01:10:51.604Z,78.00
2022-12-26T01:13:18.101Z,78.30
2022-12-26T01:15:44.591Z,78.20
2022-12-26T01:18:11.236Z,78.30
2022-12-26T01:20:37.699Z,78.40
2022-12-26T01:23:04.171Z,78.50
2022-12-26T01:25:30.693Z,78.50
2022-12-26T01:27:57.177Z,78.50
2022-12-26T01:30:23.663Z,78.60
2022-12-26T01:32:50.189Z,78.60
2022-12-26T01:35:16.671Z,78.40
2022-12-26T01:37:43.130Z,78.70
2022-12-26T01:40:09.596Z,78.80
2022-12-26T01:42:36.056Z,78.40
2022-12-26T01:45:02.540Z,78.50
2022-12-26T01:47:29.041Z,78.40
2022-12-26T01:49:55.533Z,78.20
2022-12-26T01:52:22.012Z,78.20
2022-12-26T01:54:48.480Z,78.20
2022-12-26T01:57:14.945Z,78.10
2022-12-26T01:59:41.444Z,78.10
2022-12-26T02:02:08.067Z,78.40
2022-12-26T02:04:34.664Z,78.70
2022-12-26T02:07:01.130Z,78.80
2022-12-26T02:09:27.637Z,78.70
2022-12-26T02:12:35.175Z,78.60
2022-12-26T02:14:40.602Z,78.80
2022-12-26T02:17:07.069Z,78.50
2022-12-26T02:19:33.579Z,78.70
2022-12-26T02:22:00.061Z,78.40
2022-12-26T02:24:26.559Z,78.30
2022-12-26T02:26:53.041Z,78.60
2022-12-26T02:29:19.500Z,78.60
2022-12-26T02:31:46.053Z,78.40
2022-12-26T02:34:12.560Z,78.30
2022-12-26T02:36:39.052Z,77.60
2022-12-26T02:39:45.587Z,77.70
2022-12-26T02:41:51.988Z,77.70
2022-12-26T02:44:18.443Z,77.70
2022-12-26T02:46:44.933Z,77.90
2022-12-26T02:49:11.413Z,78.50
2022-12-26T02:51:37.900Z,79.30
2022-12-26T02:54:04.368Z,78.70
2022-12-26T02:56:30.894Z,78.40
2022-12-26T02:58:57.381Z,78.50
2022-12-26T03:01:23.926Z,78.60
2022-12-26T03:03:50.441Z,78.60
2022-12-26T03:06:16.930Z,79.00
2022-12-26T03:08:43.418Z,79.10
2022-12-26T03:11:09.924Z,79.00
2022-12-26T03:13:36.414Z,79.00
2022-12-26T03:16:02.893Z,79.30
2022-12-26T03:18:59.096Z,79.60
2022-12-26T03:21:15.800Z,79.50
2022-12-26T03:23:42.276Z,79.30
2022-12-26T03:26:08.781Z,79.30
2022-12-26T03:28:35.246Z,79.90
2022-12-26T03:31:01.816Z,79.30
2022-12-26T03:33:28.320Z,79.60
2022-12-26T03:35:54.814Z,79.80
2022-12-26T03:38:21.286Z,80.20
2022-12-26T03:40:47.736Z,80.00
2022-12-26T03:43:14.218Z,80.30
2022-12-26T03:45:40.766Z,80.60
2022-12-26T03:48:07.262Z,81.10
2022-12-26T03:50:33.753Z,80.90
2022-12-26T03:53:00.208Z,80.40
2022-12-26T03:55:27.106Z,79.90
2022-12-26T03:57:53.606Z,79.80
2022-12-26T04:00:20.075Z,80.50
2022-12-26T04:02:46.570Z,80.60
2022-12-26T04:05:13.043Z,80.60
2022-12-26T04:07:56.064Z,80.50
2022-12-26T04:10:24.708Z,80.90
2022-12-26T04:12:51.180Z,80.80
2022-12-26T04:15:17.654Z,80.70
2022-12-26T04:17:44.140Z,81.00
2022-12-26T04:20:10.592Z,80.60
2022-12-26T04:22:37.077Z,81.00
2022-12-26T04:25:03.545Z,80.60
2022-12-26T04:27:30.033Z,80.90
2022-12-26T04:29:56.565Z,81.30
2022-12-26T04:32:26.661Z,80.80
2022-12-26T04:34:53.132Z,81.00
2022-12-26T04:37:19.624Z,80.70
2022-12-26T04:39:46.092Z,80.20
2022-12-26T04:42:12.577Z,80.40
2022-12-26T04:44:39.044Z,80.40
2022-12-26T04:47:05.540Z,80.60
2022-12-26T04:49:32.040Z,80.60
2022-12-26T04:51:58.514Z,81.00
2022-12-26T04:54:24.975Z,80.60
2022-12-26T04:56:51.452Z,80.30
2022-12-26T04:59:17.944Z,80.80
2022-12-26T05:01:44.539Z,81.00
2022-12-26T05:04:11.053Z,80.90
2022-12-26T05:06:37.530Z,80.50
2022-12-26T05:09:04.005Z,80.40
2022-12-26T05:11:30.494Z,80.50
2022-12-26T05:13:56.955Z,80.40
2022-12-26T05:16:23.465Z,79.90
2022-12-26T05:18:49.968Z,80.60
2022-12-26T05:21:16.577Z,80.90
2022-12-26T05:23:43.063Z,80.60
2022-12-26T05:26:09.715Z,80.30
2022-12-26T05:28:36.300Z,80.30
2022-12-26T05:31:02.826Z,80.30
2022-12-26T05:33:29.330Z,80.10
2022-12-26T05:35:55.832Z,80.30
2022-12-26T05:38:22.285Z,80.60
2022-12-26T05:40:48.757Z,81.10
2022-12-26T05:43:15.215Z,81.00
2022-12-26T05:45:44.707Z,80.80
2022-12-26T05:48:11.209Z,80.70
2022-12-26T05:50:37.668Z,80.90
2022-12-26T05:53:04.175Z,80.80
2022-12-26T05:55:30.637Z,81.10
2022-12-26T05:57:57.110Z,80.80
2022-12-26T06:00:23.578Z,80.40
2022-12-26T06:02:50.088Z,80.20
2022-12-26T06:05:16.627Z,80.20
2022-12-26T06:07:43.092Z,80.00
2022-12-26T06:10:09.556Z,80.00
2022-12-26T06:12:36.021Z,80.40
2022-12-26T06:15:02.580Z,80.50
2022-12-26T06:17:29.071Z,80.70
2022-12-26T06:19:55.574Z,80.90
2022-12-26T06:22:22.066Z,80.20
2022-12-26T06:24:48.541Z,79.90
2022-12-26T06:27:15.031Z,80.30
2022-12-26T06:29:41.495Z,80.20
2022-12-26T06:32:07.968Z,80.20
2022-12-26T06:34:34.446Z,80.00
2022-12-26T06:37:00.930Z,79.80
2022-12-26T06:39:27.401Z,79.80
2022-12-26T06:41:53.872Z,80.10
2022-12-26T06:44:20.329Z,80.10
2022-12-26T06:46:46.881Z,80.50
2022-12-26T06:49:13.397Z,80.60
2022-12-26T06:51:39.866Z,80.10
2022-12-26T06:54:06.346Z,80.10
2022-12-26T06:56:32.834Z,80.30
2022-12-26T06:58:59.320Z,80.60
2022-12-26T07:01:25.876Z,80.40
2022-12-26T07:03:52.384Z,80.60
2022-12-26T07:06:18.848Z,80.40
2022-12-26T07:08:45.321Z,80.30
2022-12-26T07:11:11.776Z,80.60
2022-12-26T07:13:38.240Z,80.50
2022-12-26T07:16:09.007Z,80.40
2022-12-26T07:18:35.495Z,80.20
2022-12-26T07:21:02.007Z,80.60
2022-12-26T07:23:28.520Z,80.60
2022-12-26T07:25:55.012Z,80.70
2022-12-26T07:28:21.511Z,80.80
2022-12-26T07:30:47.977Z,80.50
2022-12-26T07:33:14.468Z,80.40
2022-12-26T07:35:40.947Z,80.80
2022-12-26T07:38:07.423Z,80.60
2022-12-26T07:40:33.901Z,80.20
2022-12-26T07:43:00.385Z,80.10
2022-12-26T07:45:26.890Z,80.40
2022-12-26T07:47:53.385Z,80.40
2022-12-26T07:50:19.836Z,80.50
2022-12-26T07:52:46.318Z,80.60
2022-12-26T07:55:12.787Z,80.00
2022-12-26T07:57:48.656Z,80.10
2022-12-26T08:00:15.769Z,80.30
2022-12-26T08:02:44.948Z,80.00
2022-12-26T08:05:11.491Z,80.10
2022-12-26T08:07:37.974Z,80.70
2022-12-26T08:10:04.461Z,80.40
2022-12-26T08:12:30.950Z,80.40
2022-12-26T08:14:57.427Z,80.10
2022-12-26T08:17:23.925Z,80.30
2022-12-26T08:19:50.415Z,80.70
2022-12-26T08:22:16.888Z,80.80
2022-12-26T08:24:43.363Z,81.00
2022-12-26T08:27:09.860Z,81.00
2022-12-26T08:29:36.362Z,81.10
2022-12-26T08:32:02.839Z,81.00
2022-12-26T08:34:29.322Z,80.50
2022-12-26T08:36:55.798Z,81.00
2022-12-26T08:39:22.298Z,80.70
2022-12-26T08:41:48.784Z,81.00
2022-12-26T08:44:30.633Z,80.50
2022-12-26T08:46:57.219Z,80.40
2022-12-26T08:49:23.716Z,80.20
2022-12-26T08:51:50.183Z,80.60
2022-12-26T08:54:16.653Z,80.50
2022-12-26T08:56:43.134Z,81.00
2022-12-26T08:59:09.598Z,80.60
2022-12-26T09:01:38.976Z,80.60
2022-12-26T09:04:05.533Z,80.00
2022-12-26T09:06:32.003Z,80.00
2022-12-26T09:09:02.868Z,80.60
2022-12-26T09:11:29.335Z,80.80
2022-12-26T09:13:55.818Z,80.60
2022-12-26T09:16:22.855Z,80.60
2022-12-26T09:18:49.356Z,80.70
2022-12-26T09:21:15.876Z,81.00
2022-12-26T09:23:44.875Z,80.80
2022-12-26T09:26:11.358Z,80.50
2022-12-26T09:28:37.941Z,80.30
2022-12-26T09:31:04.495Z,80.60
2022-12-26T09:33:31.021Z,80.90
2022-12-26T09:36:03.337Z,80.50
2022-12-26T09:38:30.472Z,80.60
2022-12-26T09:40:56.948Z,80.30
2022-12-26T09:43:23.412Z,80.00
2022-12-26T09:45:49.898Z,80.30
2022-12-26T09:48:16.447Z,80.60
2022-12-26T09:50:43.484Z,80.60
2022-12-26T09:53:10.084Z,80.30
2022-12-26T09:55:38.896Z,80.00
2022-12-26T09:58:05.350Z,80.00
2022-12-26T10:00:31.814Z,80.00
2022-12-26T10:02:58.256Z,79.80
2022-12-26T10:05:24.730Z,79.60
2022-12-26T10:07:53.973Z,79.30
2022-12-26T10:10:20.451Z,79.40
2022-12-26T10:12:46.915Z,79.80
2022-12-26T10:15:13.402Z,79.90
2022-12-26T10:17:45.081Z,80.00
2022-12-26T10:20:11.565Z,80.10
2022-12-26T10:22:38.039Z,80.30
2022-12-26T10:25:04.538Z,80.40
2022-12-26T10:27:31.002Z,80.10
2022-12-26T10:29:57.493Z,80.40
2022-12-26T10:32:27.817Z,80.30
2022-12-26T10:34:54.788Z,80.50
2022-12-26T10:37:21.257Z,80.20
2022-12-26T10:39:47.763Z,80.00
2022-12-26T10:42:14.212Z,79.80
2022-12-26T10:44:40.715Z,79.80
2022-12-26T10:47:07.883Z,79.50
2022-12-26T10:49:34.387Z,79.30
2022-12-26T10:52:00.859Z,79.50
2022-12-26T10:54:27.341Z,79.40
2022-12-26T10:56:53.822Z,79.60
2022-12-26T10:59:20.319Z,79.30
2022-12-26T11:01:46.864Z,79.30
2022-12-26T11:04:16.588Z,79.40
2022-12-26T11:06:43.219Z,79.50
2022-12-26T11:09:09.702Z,79.30
2022-12-26T11:11:36.181Z,79.00
2022-12-26T11:14:03.388Z,79.00
2022-12-26T11:16:30.064Z,79.30
2022-12-26T11:18:56.582Z,79.00
2022-12-26T11:21:23.112Z,79.20
2022-12-26T11:23:49.613Z,79.10
2022-12-26T11:26:16.078Z,79.10
2022-12-26T11:28:42.550Z,79.20
2022-12-26T11:31:09.047Z,79.40
2022-12-26T11:33:35.580Z,79.00
2022-12-26T11:36:02.056Z,79.50
2022-12-26T11:38:28.524Z,79.40
2022-12-26T11:40:55.007Z,79.50
2022-12-26T11:43:21.487Z,79.20
2022-12-26T11:45:47.986Z,79.20
2022-12-26T11:48:14.457Z,79.60
2022-12-26T11:50:40.939Z,79.20
2022-12-26T11:53:07.429Z,78.50
2022-12-26T11:55:33.984Z,79.00
2022-12-26T11:58:00.486Z,79.20
2022-12-26T12:00:26.958Z,79.40
2022-12-26T12:02:53.492Z,79.10
2022-12-26T12:05:20.012Z,79.00
2022-12-26T12:07:46.484Z,79.30
2022-12-26T12:10:12.951Z,78.80
2022-12-26T12:12:39.496Z,79.00
2022-12-26T12:15:05.973Z,79.10
2022-12-26T12:17:32.482Z,79.00
2022-12-26T12:19:58.953Z,78.80
2022-12-26T12:22:25.431Z,78.80
2022-12-26T12:24:51.896Z,78.90
2022-12-26T12:27:18.379Z,79.50
2022-12-26T12:29:44.857Z,79.60
2022-12-26T12:32:11.491Z,79.10
2022-12-26T12:34:37.959Z,79.00
2022-12-26T12:37:04.433Z,78.70
2022-12-26T12:39:30.913Z,78.60
2022-12-26T12:41:57.398Z,79.00
2022-12-26T12:44:23.874Z,78.90
2022-12-26T12:46:50.352Z,79.30
2022-12-26T12:49:16.828Z,79.10
2022-12-26T12:51:43.301Z,79.20
2022-12-26T12:54:09.780Z,78.90
2022-12-26T12:56:41.907Z,78.90
2022-12-26T12:59:08.976Z,79.10
2022-12-26T13:01:35.560Z,78.80
2022-12-26T13:04:02.189Z,78.90
2022-12-26T13:06:28.696Z,78.80
2022-12-26T13:08:55.196Z,78.90
2022-12-26T13:11:21.695Z,79.00
2022-12-26T13:13:53.312Z,79.10
2022-12-26T13:16:20.353Z,79.00
2022-12-26T13:18:46.833Z,79.20
2022-12-26T13:21:13.284Z,79.00
2022-12-26T13:23:39.756Z,78.80
2022-12-26T13:26:06.207Z,78.90
2022-12-26T13:28:32.674Z,78.90
2022-12-26T13:30:59.141Z,78.90
2022-12-26T13:33:27.083Z,79.10
2022-12-26T13:35:57.250Z,79.10
2022-12-26T13:38:23.729Z,79.10
2022-12-26T13:40:50.213Z,79.10
2022-12-26T13:43:16.700Z,79.50
2022-12-26T13:45:43.260Z,79.40
2022-12-26T13:48:09.849Z,79.20
2022-12-26T13:50:36.315Z,79.20
2022-12-26T13:53:02.790Z,79.40
2022-12-26T13:55:29.267Z,79.50
2022-12-26T13:57:55.732Z,79.10
2022-12-26T14:00:22.211Z,78.90
2022-12-26T14:05:35.108Z,78.80
2022-12-26T14:08:01.583Z,78.70
2022-12-26T14:10:28.054Z,79.30
2022-12-26T14:12:54.547Z,79.40
2022-12-26T14:15:21.037Z,79.00
2022-12-26T14:17:47.539Z,79.10
2022-12-26T14:20:14.013Z,78.80
2022-12-26T14:22:40.513Z,78.50
2022-12-26T14:25:06.981Z,78.70
2022-12-26T14:27:33.485Z,79.00
2022-12-26T14:29:59.958Z,78.70
2022-12-26T14:32:26.422Z,78.30
2022-12-26T14:34:52.906Z,78.10
2022-12-26T14:37:19.391Z,77.70
2022-12-26T14:39:45.881Z,77.80
2022-12-26T14:42:15.351Z,77.70
2022-12-26T14:44:41.842Z,78.00
2022-12-26T14:47:08.305Z,77.90
2022-12-26T14:49:36.017Z,77.50
2022-12-26T14:52:02.818Z,77.60
2022-12-26T14:54:29.313Z,77.90
2022-12-26T14:56:55.768Z,77.80
2022-12-26T14:59:22.265Z,77.60
2022-12-26T15:01:48.861Z,77.10
2022-12-26T15:04:15.477Z,76.80
2022-12-26T15:06:41.957Z,76.80
2022-12-26T15:09:08.451Z,76.20
2022-12-26T15:11:34.939Z,76.50
2022-12-26T15:14:01.437Z,76.70
2022-12-26T15:16:27.908Z,76.20
2022-12-26T15:18:54.409Z,76.30
2022-12-26T15:21:20.886Z,76.70
2022-12-26T15:23:47.349Z,76.60
2022-12-26T15:26:13.816Z,76.40
2022-12-26T15:28:40.299Z,76.10
2022-12-26T15:31:06.815Z,75.90
2022-12-26T15:33:33.328Z,75.60
2022-12-26T15:36:03.388Z,76.00
2022-12-26T15:38:30.299Z,75.70
2022-12-26T15:40:56.788Z,75.70
2022-12-26T15:43:23.268Z,75.00
2022-12-26T15:45:49.794Z,75.90
2022-12-26T15:48:16.282Z,75.40
2022-12-26T15:50:42.773Z,75.60
2022-12-26T15:53:09.245Z,75.50
2022-12-26T15:55:35.736Z,75.60
2022-12-26T15:58:02.202Z,74.70
2022-12-26T16:00:28.730Z,75.50
2022-12-26T16:02:57.341Z,75.10
2022-12-26T16:05:23.943Z,74.40
2022-12-26T16:07:50.408Z,74.70
2022-12-26T16:10:16.888Z,74.90
2022-12-26T16:12:43.359Z,74.50
2022-12-26T16:15:09.877Z,74.60
2022-12-26T16:17:36.364Z,74.90
2022-12-26T16:20:02.903Z,74.40
2022-12-26T16:22:29.340Z,73.40
2022-12-26T16:24:55.832Z,73.50
2022-12-26T16:27:22.305Z,73.80
2022-12-26T16:29:48.792Z,74.00
2022-12-26T16:32:15.281Z,73.10
2022-12-26T16:34:41.719Z,73.90
2022-12-26T16:37:08.202Z,73.00
2022-12-26T16:39:39.229Z,73.50
2022-12-26T16:42:05.707Z,73.30
2022-12-26T16:44:32.167Z,72.80
2022-12-26T16:46:58.738Z,72.40
2022-12-26T16:49:25.266Z,73.10
2022-12-26T16:51:51.750Z,73.10
2022-12-26T16:54:18.220Z,72.90
2022-12-26T16:56:44.699Z,73.40
2022-12-26T16:59:16.857Z,72.60
2022-12-26T17:01:44.037Z,73.10
2022-12-26T17:04:10.579Z,72.70
2022-12-26T17:06:37.061Z,72.80
2022-12-26T17:09:03.558Z,72.60
2022-12-26T17:11:30.051Z,72.00
2022-12-26T17:13:57.221Z,72.70
2022-12-26T17:16:23.718Z,71.80
2022-12-26T17:18:50.208Z,72.10
2022-12-26T17:21:21.257Z,72.50
2022-12-26T17:23:47.738Z,71.80
2022-12-26T17:26:14.242Z,72.20
2022-12-26T17:28:40.684Z,72.00
2022-12-26T17:31:07.212Z,72.20
2022-12-26T17:33:33.709Z,71.70
2022-12-26T17:36:45.300Z,71.50
2022-12-26T17:38:46.670Z,71.70
2022-12-26T17:41:13.174Z,71.50
2022-12-26T17:43:39.646Z,71.90
2022-12-26T17:46:06.161Z,71.40
2022-12-26T17:48:32.626Z,71.00
2022-12-26T17:50:59.127Z,71.40
2022-12-26T17:53:25.633Z,71.00
2022-12-26T17:55:52.119Z,71.40
2022-12-26T17:58:18.597Z,71.20
2022-12-26T18:00:45.131Z,71.00
2022-12-26T18:03:11.687Z,71.10
2022-12-26T18:05:38.641Z,71.00
2022-12-26T18:08:05.120Z,70.50
2022-12-26T18:10:31.625Z,70.70
2022-12-26T18:12:58.074Z,70.20
2022-12-26T18:15:24.576Z,70.10
2022-12-26T18:17:51.067Z,70.60
2022-12-26T18:20:17.539Z,70.40
2022-12-26T18:22:44.030Z,70.00
2022-12-26T18:25:10.493Z,70.20
2022-12-26T18:27:36.978Z,69.90
2022-12-26T18:30:03.461Z,70.50
2022-12-26T18:32:29.942Z,69.90
2022-12-26T18:34:56.428Z,70.10
2022-12-26T18:37:22.886Z,70.20
2022-12-26T18:39:49.336Z,70.00
2022-12-26T18:42:19.329Z,69.50
2022-12-26T18:44:45.815Z,69.90
2022-12-26T18:47:13.415Z,69.90
2022-12-26T18:49:39.907Z,69.90
2022-12-26T18:52:06.397Z,69.70
2022-12-26T18:54:32.870Z,69.40
2022-12-26T18:56:59.342Z,70.00
2022-12-26T18:59:25.816Z,69.50
2022-12-26T19:01:52.414Z,69.50
2022-12-26T19:04:19.001Z,69.90
2022-12-26T19:06:45.512Z,69.80
2022-12-26T19:09:11.993Z,69.60
2022-12-26T19:11:38.499Z,69.50
2022-12-26T19:14:04.985Z,69.60
2022-12-26T19:16:31.526Z,69.10
2022-12-26T19:18:58.058Z,69.60
2022-12-26T19:21:24.553Z,69.10
2022-12-26T19:23:51.020Z,69.10
2022-12-26T19:26:17.546Z,69.50
2022-12-26T19:28:44.045Z,69.10
2022-12-26T19:31:10.696Z,68.70
2022-12-26T19:33:37.236Z,69.00
2022-12-26T19:36:03.748Z,69.20
2022-12-26T19:38:30.223Z,68.50
2022-12-26T19:40:56.725Z,69.00
2022-12-26T19:43:23.184Z,68.40
2022-12-26T19:45:49.704Z,68.50
2022-12-26T19:48:16.185Z,68.40
2022-12-26T19:50:42.761Z,68.60
2022-12-26T19:53:09.256Z,68.80
2022-12-26T19:55:35.750Z,68.50
2022-12-26T19:58:02.237Z,68.30
2022-12-26T20:00:28.738Z,68.50
2022-12-26T20:02:55.244Z,68.30
2022-12-26T20:05:21.758Z,67.90
2022-12-26T20:07:48.248Z,68.40
2022-12-26T20:10:14.720Z,68.30
2022-12-26T20:12:41.192Z,67.70
2022-12-26T20:15:07.671Z,68.20
2022-12-26T20:17:34.178Z,68.00
2022-12-26T20:20:00.740Z,68.00
2022-12-26T20:22:27.229Z,68.70
2022-12-26T20:24:53.706Z,67.80
2022-12-26T20:27:20.194Z,67.60
2022-12-26T20:29:46.672Z,67.60
2022-12-26T20:32:13.162Z,67.60
2022-12-26T20:34:39.649Z,67.70
2022-12-26T20:37:06.111Z,67.70
2022-12-26T20:39:32.583Z,68.00
2022-12-26T20:41:59.111Z,67.50
2022-12-26T20:44:25.584Z,67.20
2022-12-26T20:46:52.069Z,67.20
2022-12-26T20:49:18.557Z,66.90
2022-12-26T20:51:45.032Z,67.00
2022-12-26T20:54:11.502Z,67.00
2022-12-26T20:56:39.458Z,67.00
2022-12-26T20:59:05.934Z,67.20
2022-12-26T21:01:32.568Z,66.90
2022-12-26T21:03:59.175Z,67.50
2022-12-26T21:06:25.643Z,67.40
2022-12-26T21:08:52.124Z,67.10
2022-12-26T21:11:18.589Z,66.70
2022-12-26T21:13:45.047Z,66.30
2022-12-26T21:16:11.512Z,66.60
2022-12-26T21:18:37.990Z,66.90
2022-12-26T21:21:04.488Z,66.90
2022-12-26T21:23:30.974Z,66.00
2022-12-26T21:25:57.431Z,66.50
2022-12-26T21:28:23.888Z,66.90
2022-12-26T21:30:50.382Z,66.90
2022-12-26T21:33:17.141Z,66.70
2022-12-26T21:35:43.621Z,66.50
2022-12-26T21:38:10.108Z,66.60
2022-12-26T21:40:36.590Z,66.60
2022-12-26T21:43:03.475Z,66.50
2022-12-26T21:45:29.964Z,66.50
2022-12-26T21:47:56.467Z,66.90
2022-12-26T21:50:22.939Z,66.90
2022-12-26T21:52:49.418Z,65.80
2022-12-26T21:55:15.896Z,66.00
2022-12-26T21:57:42.376Z,66.10
2022-12-26T22:00:08.831Z,66.00
2022-12-26T22:02:35.443Z,66.20
2022-12-26T22:05:02.246Z,65.90
2022-12-26T22:07:28.727Z,66.00
2022-12-26T22:09:55.251Z,65.50
2022-12-26T22:12:21.715Z,65.80
2022-12-26T22:14:48.208Z,65.00
2022-12-26T22:17:14.691Z,65.40
2022-12-26T22:19:41.163Z,66.10
2022-12-26T22:22:07.693Z,66.00
2022-12-26T22:24:34.214Z,65.30
2022-12-26T22:27:00.693Z,64.90
2022-12-26T22:29:27.513Z,65.10
2022-12-26T22:31:53.986Z,64.90
2022-12-26T22:34:20.459Z,64.80
2022-12-26T22:36:46.926Z,65.20
2022-12-26T22:39:13.399Z,65.10
2022-12-26T22:41:39.920Z,65.10
2022-12-26T22:44:06.391Z,64.50
2022-12-26T22:46:32.908Z,65.20
2022-12-26T22:48:59.463Z,65.00
2022-12-26T22:51:26.041Z,65.10
2022-12-26T22:53:52.557Z,64.30
2022-12-26T22:56:19.043Z,64.30
2022-12-26T22:58:45.522Z,64.90
2022-12-26T23:01:12.107Z,64.60
2022-12-26T23:03:38.701Z,64.70
2022-12-26T23:06:05.225Z,64.90
2022-12-26T23:08:31.741Z,64.80
2022-12-26T23:10:58.206Z,64.60
2022-12-26T23:13:24.693Z,64.50
2022-12-26T23:15:51.163Z,64.40
2022-12-26T23:18:17.660Z,64.10
2022-12-26T23:20:44.149Z,64.80
2022-12-26T23:23:10.646Z,64.80
2022-12-26T23:25:37.138Z,64.10
2022-12-26T23:28:03.642Z,64.60
2022-12-26T23:30:33.563Z,64.50
2022-12-26T23:33:00.032Z,64.20
2022-12-26T23:35:26.513Z,63.50
2022-12-26T23:37:52.986Z,64.40
2022-12-26T23:40:19.478Z,64.10
2022-12-26T23:42:45.975Z,63.90
2022-12-26T23:45:12.458Z,64.20
2022-12-26T23:47:38.953Z,65.00
2022-12-26T23:50:05.436Z,64.10
2022-12-26T23:52:31.914Z,64.20
2022-12-26T23:54:58.410Z,63.70
2022-12-26T23:57:24.921Z,63.90
2022-12-26T23:59:51.429Z,63.70
